Terminal Aerodrome Forecast
Issued by NWS Quad Cities IA IL

Home | Current Version | Previous Version | Graphics & Text | Print | Product List | Glossary On
Versions: 1 2 3 4 5 6 7 8 9 10 11 12 13 14 15 16 17 18 19
172
FTUS43 KDVN 212340
TAFDBQ
TAF
KDBQ 212340Z 2200/2224 24010KT P6SM VCSH SCT015 BKN035
      TEMPO 2201/2202 3SM TSRA OVC025CB
     FM220200 32009KT P6SM -SHRA VCTS BKN040CB
     FM220300 VRB04KT P6SM BKN100
     FM220500 12012KT 6SM BR VCTS BKN040CB
     FM220900 27010KT 3SM BR BKN020
     FM221500 32015G22KT P6SM SCT035=

USA.gov is the U.S. government's official web portal to all federal, state and local government web resources and services.